Jackie — WDF2439 — position and weather

sailwx.info

Track history (hours):
 
Tides and Currents Weather Stations Pressure Air Temp Water Temp Dewpoint Dewpoint Depression Visibility Wind Speed Wind Dir Waves Ship Positions

Jackie

Owner: Enterprise Marine Services, LLC, San Antonio, TX. More information available from US FCC via Universal Licensing System and Coast Guard Vessel Documentation Center.

Last reported at 2018-Jun-16 00:17 UTC. Time now 2018-Jun-24 14:19 UTC.
Position N 29°34' W 090°31'.
Warning: this ship's position is 8 days out of date.

Length 22 m; draft 3.3 m.

Type: . MMSI: 367050250.

Date/timePositionNaut miles runAvg speedWind from/ knotsBaromVisibWave heightAir tempDewpointWater temp
2018-Jun-16 00:17N 29°34' W 090°31'1 5.0
2018-Jun-16 00:00N 29°34' W 090°32'3 5.1
2018-Jun-15 23:26N 29°35' W 090°35'2 4.1
2018-Jun-15 22:59N 29°35' W 090°37'1 2.1
2018-Jun-15 22:29N 29°35' W 090°39'2 4.0
2018-Jun-15 22:00N 29°36' W 090°40'2 3.6
2018-Jun-15 21:30N 29°37' W 090°42'2 3.9
2018-Jun-15 21:00N 29°35' W 090°43'2 3.5
2018-Jun-15 20:30N 29°34' W 090°45'1 1.4
2018-Jun-15 19:56N 29°33' W 090°45'0 1.0
2018-Jun-15 19:30N 29°33' W 090°45'3 5.3
2018-Jun-15 19:00N 29°32' W 090°49'3 6.1
2018-Jun-15 18:29N 29°32' W 090°52'6 6.1
2018-Jun-15 17:28N 29°36' W 090°58'52 3.5
2018-Jun-15 02:32N 29°51' W 091°55'0 5.6
2018-Jun-15 02:30N 29°51' W 091°56'2 5.0
2018-Jun-15 02:00N 29°50' W 091°58'2 4.9
2018-Jun-15 01:30N 29°49' W 092°01'2 5.0
2018-Jun-15 01:00N 29°48' W 092°04'2 4.8
2018-Jun-15 00:30N 29°48' W 092°06'2 4.8
2018-Jun-15 00:00N 29°47' W 092°09'2 3.5
2018-Jun-14 23:30N 29°47' W 092°11'1 2.6
2018-Jun-14 23:00N 29°47' W 092°12'1 2.2
2018-Jun-14 22:30N 29°48' W 092°14'0 0.9
2018-Jun-14 22:00N 29°48' W 092°14'0 0.9
2018-Jun-14 21:30N 29°48' W 092°15'2 4.9
2018-Jun-14 21:00N 29°49' W 092°17'2 4.4
2018-Jun-14 20:30N 29°50' W 092°19'2 4.6
2018-Jun-14 20:00N 29°51' W 092°22'36 3.5
2018-Jun-14 09:33N 29°56' W 093°03'1 3.7
2018-Jun-14 09:22N 29°56' W 093°04'2 4.1
2018-Jun-14 08:49N 29°56' W 093°06'1 3.4
2018-Jun-14 08:30N 29°56' W 093°08'2 3.9
2018-Jun-14 08:00N 29°56' W 093°10'2 3.1
2018-Jun-14 07:30N 29°58' W 093°11'2 3.2
2018-Jun-14 07:00N 29°59' W 093°12'2 3.3
2018-Jun-14 06:30N 30°00' W 093°14'2 3.3
2018-Jun-14 06:00N 30°02' W 093°14'2 3.2
2018-Jun-14 05:30N 30°03' W 093°16'2 3.0
2018-Jun-14 05:00N 30°04' W 093°16'2 3.1
2018-Jun-14 04:30N 30°05' W 093°17'0 0.9
2018-Jun-14 04:00N 30°05' W 093°18'1 1.4
2018-Jun-14 03:30N 30°06' W 093°18'0 0.7
2018-Jun-14 03:00N 30°06' W 093°19'0 0.3
2018-Jun-14 02:30N 30°06' W 093°19'0 0.0
2018-Jun-14 02:00N 30°06' W 093°19'0 0.0
2018-Jun-14 01:30N 30°06' W 093°19'0 0.0
2018-Jun-14 01:00N 30°06' W 093°19'0 0.0
2018-Jun-14 00:29N 30°06' W 093°19'0 0.0
2018-Jun-13 23:59N 30°06' W 093°19'0 0.0
2018-Jun-13 23:29N 30°06' W 093°19'0 0.0
2018-Jun-13 22:59N 30°06' W 093°19'0 0.0
2018-Jun-13 22:29N 30°06' W 093°19'0 0.0
2018-Jun-13 22:00N 30°06' W 093°19'0 0.0
2018-Jun-13 21:29N 30°06' W 093°19'0 0.1
2018-Jun-13 20:59N 30°06' W 093°19'0 0.1
2018-Jun-13 20:29N 30°06' W 093°19'0 0.1
2018-Jun-13 19:59N 30°06' W 093°19'0 0.0
2018-Jun-13 19:29N 30°06' W 093°19'0 0.0
2018-Jun-13 18:59N 30°06' W 093°19'0 0.0
2018-Jun-13 18:29N 30°06' W 093°19'0 0.0
2018-Jun-13 17:59N 30°06' W 093°19'0 0.0
2018-Jun-13 17:29N 30°06' W 093°19'0 0.0
2018-Jun-13 16:59N 30°06' W 093°19'0 0.1
2018-Jun-13 16:29N 30°06' W 093°19'0 0.2
2018-Jun-13 15:59N 30°06' W 093°19'0 0.0
2018-Jun-13 15:29N 30°06' W 093°19'0 0.0
2018-Jun-13 14:59N 30°06' W 093°19'0 0.0
2018-Jun-13 14:29N 30°06' W 093°19'0 0.0
2018-Jun-13 13:59N 30°06' W 093°19'0 0.0
2018-Jun-13 13:29N 30°06' W 093°19'0 0.0
2018-Jun-13 12:59N 30°06' W 093°19'0 0.0
2018-Jun-13 12:29N 30°06' W 093°19'0 0.0
2018-Jun-13 11:59N 30°06' W 093°19'0 0.0
2018-Jun-13 11:29N 30°06' W 093°19'0 0.0
2018-Jun-13 10:59N 30°06' W 093°19'0 0.1
2018-Jun-13 10:29N 30°06' W 093°19'0 0.0
2018-Jun-13 09:59N 30°06' W 093°19'0 0.1
2018-Jun-13 09:29N 30°06' W 093°19'0 0.1
2018-Jun-13 08:59N 30°06' W 093°19'0 0.0
2018-Jun-13 08:29N 30°06' W 093°19'0 0.0
2018-Jun-13 07:59N 30°06' W 093°19'0 0.0
2018-Jun-13 07:29N 30°06' W 093°19'0 0.0
2018-Jun-13 06:59N 30°06' W 093°19'0 0.0
2018-Jun-13 06:29N 30°06' W 093°19'0 0.0
2018-Jun-13 05:59N 30°06' W 093°19'0 0.0
2018-Jun-13 05:29N 30°06' W 093°19'0 0.0
2018-Jun-13 04:59N 30°06' W 093°19'0 0.0
2018-Jun-13 04:29N 30°06' W 093°19'0 0.0
2018-Jun-13 03:59N 30°06' W 093°19'1 1.5
2018-Jun-13 03:30N 30°06' W 093°20'2 4.2
2018-Jun-13 03:01N 30°08' W 093°20'0 0.7
2018-Jun-13 02:28N 30°08' W 093°20'0 0.9
2018-Jun-13 01:58N 30°08' W 093°19'0 0.0
2018-Jun-13 01:28N 30°08' W 093°19'0 0.0
2018-Jun-13 00:58N 30°08' W 093°19'0 0.0
2018-Jun-13 00:28N 30°08' W 093°19'0 0.0
2018-Jun-12 23:58N 30°08' W 093°19'0 0.0
2018-Jun-12 23:28N 30°08' W 093°19'0 0.0
2018-Jun-12 22:58N 30°08' W 093°19'0 0.0
2018-Jun-12 22:28N 30°08' W 093°19'0 0.0
2018-Jun-12 21:58N 30°08' W 093°19'0 0.0
2018-Jun-12 21:28N 30°08' W 093°19'0 0.0
2018-Jun-12 20:58N 30°08' W 093°19'0 0.0
2018-Jun-12 20:28N 30°08' W 093°19'0 0.0
2018-Jun-12 19:58N 30°08' W 093°19'0 0.0
2018-Jun-12 19:28N 30°08' W 093°19'0 0.0
2018-Jun-12 18:58N 30°08' W 093°19'0 0.0
2018-Jun-12 18:28N 30°08' W 093°19'0 0.0
2018-Jun-12 17:58N 30°08' W 093°19'0 0.0
2018-Jun-12 17:28N 30°08' W 093°19'0 0.0
2018-Jun-12 16:58N 30°08' W 093°19'0 0.0
2018-Jun-12 16:28N 30°08' W 093°19'0 0.0
2018-Jun-12 15:58N 30°08' W 093°19'0 0.0
2018-Jun-12 15:28N 30°08' W 093°19'0 0.0
2018-Jun-12 14:58N 30°08' W 093°19'0 0.0
2018-Jun-12 14:28N 30°08' W 093°19'0 0.0
2018-Jun-12 13:58N 30°08' W 093°19'0 0.0
2018-Jun-12 13:28N 30°08' W 093°19'0 0.0
2018-Jun-12 12:58N 30°08' W 093°19'0 0.0
2018-Jun-12 12:28N 30°08' W 093°19'0 0.4
2018-Jun-12 11:58N 30°08' W 093°19'0 0.4
2018-Jun-12 11:28N 30°08' W 093°20'0 0.1
2018-Jun-12 10:58N 30°08' W 093°20'2 3.6
2018-Jun-12 10:30N 30°06' W 093°20'1 2.4
2018-Jun-12 10:00N 30°05' W 093°20'0 0.0
2018-Jun-12 09:30N 30°05' W 093°20'0 0.0
2018-Jun-12 09:00N 30°05' W 093°20'0 0.0
2018-Jun-12 08:30N 30°05' W 093°20'0 0.0
2018-Jun-12 08:00N 30°05' W 093°20'0 0.0
2018-Jun-12 07:30N 30°05' W 093°20'0 0.0
2018-Jun-12 06:57N 30°05' W 093°20'0 0.0
2018-Jun-12 06:30N 30°05' W 093°20'0 0.0
2018-Jun-12 06:00N 30°05' W 093°20'0 0.0
2018-Jun-12 05:30N 30°05' W 093°20'0 0.0
2018-Jun-12 05:00N 30°05' W 093°20'0 0.0
2018-Jun-12 04:30N 30°05' W 093°20'0 0.0
2018-Jun-12 03:57N 30°05' W 093°20'0 0.0
2018-Jun-12 03:30N 30°05' W 093°20'0 0.0
2018-Jun-12 03:00N 30°05' W 093°20'0 0.0
2018-Jun-12 02:30N 30°05' W 093°20'0 0.0
2018-Jun-12 02:00N 30°05' W 093°20'0 0.0
2018-Jun-12 01:30N 30°05' W 093°20'0 0.0
2018-Jun-12 01:00N 30°05' W 093°20'0 0.0
2018-Jun-12 00:30N 30°05' W 093°20'0 0.0
2018-Jun-12 00:00N 30°05' W 093°20'0 0.0
2018-Jun-11 23:30N 30°05' W 093°20'0 0.7
2018-Jun-11 22:59N 30°05' W 093°20'0 0.0
2018-Jun-11 22:29N 30°05' W 093°20'0 0.0
2018-Jun-11 21:59N 30°05' W 093°20'0 0.0
2018-Jun-11 21:29N 30°05' W 093°20'0 0.0
2018-Jun-11 20:59N 30°05' W 093°20'0 0.0
2018-Jun-11 20:26N 30°05' W 093°20'0 0.0
2018-Jun-11 19:59N 30°05' W 093°20'0 0.0
2018-Jun-11 19:29N 30°05' W 093°20'0 0.0
2018-Jun-11 18:59N 30°05' W 093°20'0 0.0
2018-Jun-11 18:29N 30°05' W 093°20'0 0.7
2018-Jun-11 17:58N 30°05' W 093°20'0 0.0
2018-Jun-11 17:28N 30°05' W 093°20'0 0.0
2018-Jun-11 16:58N 30°05' W 093°20'0 0.0
2018-Jun-11 16:28N 30°05' W 093°20'0 0.0
2018-Jun-11 15:58N 30°05' W 093°20'0 0.0
2018-Jun-11 15:28N 30°05' W 093°20'0 0.0
2018-Jun-11 14:58N 30°05' W 093°20'0 0.0
2018-Jun-11 14:28N 30°05' W 093°20'0 0.0
2018-Jun-11 13:58N 30°05' W 093°20'0 0.7
2018-Jun-11 13:26N 30°05' W 093°20'0 0.0
2018-Jun-11 12:59N 30°05' W 093°20'0 0.8
2018-Jun-11 12:30N 30°05' W 093°20'0 0.0
2018-Jun-11 11:57N 30°05' W 093°20'0 0.0
2018-Jun-11 11:30N 30°05' W 093°20'0 0.0
2018-Jun-11 11:00N 30°05' W 093°20'0 0.0
2018-Jun-11 10:30N 30°05' W 093°20'0 0.0
2018-Jun-11 10:00N 30°05' W 093°20'0 0.0
2018-Jun-11 09:30N 30°05' W 093°20'0 0.0
2018-Jun-11 09:00N 30°05' W 093°20'0 0.0
2018-Jun-11 08:30N 30°05' W 093°20'0 0.0
2018-Jun-11 08:00N 30°05' W 093°20'0 0.0
2018-Jun-11 07:30N 30°05' W 093°20'0 0.0
2018-Jun-11 07:00N 30°05' W 093°20'0 0.0
2018-Jun-11 06:30N 30°05' W 093°20'0 0.0
2018-Jun-11 06:00N 30°05' W 093°20'0 0.0
2018-Jun-11 05:30N 30°05' W 093°20'0 0.0
2018-Jun-11 04:57N 30°05' W 093°20'0 0.0
2018-Jun-11 04:30N 30°05' W 093°20'0 0.0
2018-Jun-11 04:00N 30°05' W 093°20'0 0.0
2018-Jun-11 03:30N 30°05' W 093°20'0 0.0
2018-Jun-11 03:00N 30°05' W 093°20'0 0.0
2018-Jun-11 02:30N 30°05' W 093°20'0 0.0
2018-Jun-11 02:00N 30°05' W 093°20'0 0.0
2018-Jun-11 01:30N 30°05' W 093°20'0 0.0
2018-Jun-11 01:00N 30°05' W 093°20'0 0.0
2018-Jun-11 00:30N 30°05' W 093°20'0 0.0
2018-Jun-11 00:00N 30°05' W 093°20'0 0.0
2018-Jun-10 23:30N 30°05' W 093°20'0 0.0
2018-Jun-10 23:00N 30°05' W 093°20'0 0.0
2018-Jun-10 22:30N 30°05' W 093°20'0 0.0
2018-Jun-10 22:00N 30°05' W 093°20'0 0.0
2018-Jun-10 21:27N 30°05' W 093°20'0 0.0
2018-Jun-10 21:00N 30°05' W 093°20'0 0.0
2018-Jun-10 20:30N 30°05' W 093°20'0 0.0
2018-Jun-10 20:00N 30°05' W 093°20'0 0.0
2018-Jun-10 19:30N 30°05' W 093°20'0 0.0
2018-Jun-10 18:57N 30°05' W 093°20'0 0.0
2018-Jun-10 18:30N 30°05' W 093°20'0 0.0
2018-Jun-10 18:00N 30°05' W 093°20'0 0.0
2018-Jun-10 17:30N 30°05' W 093°20'0 0.0
2018-Jun-10 17:00N 30°05' W 093°20'0 0.0
2018-Jun-10 16:30N 30°05' W 093°20'0 0.0
2018-Jun-10 16:00N 30°05' W 093°20'0 0.0
2018-Jun-10 15:30N 30°05' W 093°20'0 0.0
2018-Jun-10 15:00N 30°05' W 093°20'0 0.0
2018-Jun-10 14:30N 30°05' W 093°20'0 0.0
2018-Jun-10 13:30N 30°05' W 093°20'0 0.0
2018-Jun-10 13:00N 30°05' W 093°20'0 0.0
2018-Jun-10 12:30N 30°05' W 093°20'0 0.0
2018-Jun-10 12:00N 30°05' W 093°20'0 0.0
2018-Jun-10 11:30N 30°05' W 093°20'0 0.0
2018-Jun-10 11:00N 30°05' W 093°20'0 0.0
2018-Jun-10 10:27N 30°05' W 093°20'0 0.0
2018-Jun-10 10:00N 30°05' W 093°20'0 0.0
2018-Jun-10 09:30N 30°05' W 093°20'0 0.0
2018-Jun-10 08:57N 30°05' W 093°20'0 0.0
2018-Jun-10 08:30N 30°05' W 093°20'0 0.0
2018-Jun-10 08:00N 30°05' W 093°20'0 0.0
2018-Jun-10 07:30N 30°05' W 093°20'0 0.0
2018-Jun-10 07:00N 30°05' W 093°20'0 0.0
2018-Jun-10 06:30N 30°05' W 093°20'0 0.0
2018-Jun-10 06:00N 30°05' W 093°20'0 0.0
2018-Jun-10 05:30N 30°05' W 093°20'0 0.0
2018-Jun-10 05:00N 30°05' W 093°20'0 0.0
2018-Jun-10 04:30N 30°05' W 093°20'0 0.0
2018-Jun-10 04:00N 30°05' W 093°20'0 0.0
2018-Jun-10 03:30N 30°05' W 093°20'0 0.0
2018-Jun-10 03:00N 30°05' W 093°20'0 0.0
2018-Jun-10 02:30N 30°05' W 093°20'0 0.0
2018-Jun-10 02:00N 30°05' W 093°20'0 0.0
2018-Jun-10 01:30N 30°05' W 093°20'0 0.0
2018-Jun-10 01:00N 30°05' W 093°20'0 0.0
2018-Jun-10 00:30N 30°05' W 093°20'0 0.0
2018-Jun-10 00:00N 30°05' W 093°20'0 0.0
2018-Jun-09 23:30N 30°05' W 093°20'0 0.0
2018-Jun-09 23:00N 30°05' W 093°20'0 0.0
2018-Jun-09 22:30N 30°05' W 093°20'0 0.0
2018-Jun-09 22:00N 30°05' W 093°20'0 0.0
2018-Jun-09 21:30N 30°05' W 093°20'0 0.7
2018-Jun-09 20:59N 30°05' W 093°20'0 0.0
2018-Jun-09 20:29N 30°05' W 093°20'0 0.0
2018-Jun-09 19:59N 30°05' W 093°20'0 0.0
2018-Jun-09 19:29N 30°05' W 093°20'0 0.0
2018-Jun-09 18:59N 30°05' W 093°20'0 0.0
2018-Jun-09 18:29N 30°05' W 093°20'0 0.0
2018-Jun-09 17:59N 30°05' W 093°20'0 0.0
2018-Jun-09 17:29N 30°05' W 093°20'0 0.0
2018-Jun-09 16:59N 30°05' W 093°20'0 0.0
2018-Jun-09 16:29N 30°05' W 093°20'0 0.0
2018-Jun-09 15:59N 30°05' W 093°20'0 0.0
2018-Jun-09 14:59N 30°05' W 093°20'0 0.0
2018-Jun-09 14:29N 30°05' W 093°20'0 0.0
2018-Jun-09 13:59N 30°05' W 093°20'0 0.0
2018-Jun-09 13:26N 30°05' W 093°20'0 0.8
2018-Jun-09 12:59N 30°05' W 093°20'0 0.0
2018-Jun-09 12:29N 30°05' W 093°20'0 0.0
2018-Jun-09 11:59N 30°05' W 093°20'0 0.0
2018-Jun-09 11:29N 30°05' W 093°20'0 0.0
2018-Jun-09 10:59N 30°05' W 093°20'0 0.0
2018-Jun-09 10:29N 30°05' W 093°20'0 0.0
2018-Jun-09 09:59N 30°05' W 093°20'0 0.0
2018-Jun-09 09:29N 30°05' W 093°20'0 0.0
2018-Jun-09 08:59N 30°05' W 093°20'0 0.0
2018-Jun-09 08:26N 30°05' W 093°20'0 0.0
2018-Jun-09 07:59N 30°05' W 093°20'0 0.0
2018-Jun-09 07:29N 30°05' W 093°20'0 0.0
2018-Jun-09 06:59N 30°05' W 093°20'0 0.0
2018-Jun-09 06:29N 30°05' W 093°20'0 0.0
2018-Jun-09 05:59N 30°05' W 093°20'0 0.0
2018-Jun-09 05:29N 30°05' W 093°20'0 0.0
2018-Jun-09 04:59N 30°05' W 093°20'0 0.0
2018-Jun-09 04:29N 30°05' W 093°20'0 0.0
2018-Jun-09 03:59N 30°05' W 093°20'0 0.0
2018-Jun-09 03:26N 30°05' W 093°20'0 0.0
2018-Jun-09 02:59N 30°05' W 093°20'0 0.0
2018-Jun-09 02:29N 30°05' W 093°20'0 0.0
2018-Jun-09 01:59N 30°05' W 093°20'0 0.0
2018-Jun-09 01:29N 30°05' W 093°20'0 0.0
2018-Jun-09 00:59N 30°05' W 093°20'0 0.0
2018-Jun-09 00:29N 30°05' W 093°20'0 0.0
2018-Jun-08 23:59N 30°05' W 093°20'0 0.0
2018-Jun-08 23:29N 30°05' W 093°20'0 0.0
2018-Jun-08 22:59N 30°05' W 093°20'0 0.0
2018-Jun-08 22:29N 30°05' W 093°20'0 0.0
2018-Jun-08 21:59N 30°05' W 093°20'0 0.0
2018-Jun-08 21:29N 30°05' W 093°20'0 0.0
2018-Jun-08 20:53N 30°05' W 093°20'0 0.0
2018-Jun-08 20:29N 30°05' W 093°20'0 0.0
2018-Jun-08 19:59N 30°05' W 093°20'0 0.0
2018-Jun-08 19:29N 30°05' W 093°20'0 0.0
2018-Jun-08 18:59N 30°05' W 093°20'0 0.0
2018-Jun-08 18:29N 30°05' W 093°20'0 0.0
2018-Jun-08 17:59N 30°05' W 093°20'0 0.0
2018-Jun-08 17:29N 30°05' W 093°20'0 0.0
2018-Jun-08 16:59N 30°05' W 093°20'0 0.0
2018-Jun-08 16:29N 30°05' W 093°20'0 0.0
2018-Jun-08 15:59N 30°05' W 093°20'0 0.0
2018-Jun-08 15:29N 30°05' W 093°20'0 0.0
2018-Jun-08 14:59N 30°05' W 093°20'0 0.0
2018-Jun-08 14:29N 30°05' W 093°20'0 0.0
2018-Jun-08 13:59N 30°05' W 093°20'0 0.0
2018-Jun-08 13:29N 30°05' W 093°20'0 0.0
2018-Jun-08 12:59N 30°05' W 093°20'0 0.0
2018-Jun-08 12:29N 30°05' W 093°20'0 0.0
2018-Jun-08 11:59N 30°05' W 093°20'0 0.0
2018-Jun-08 11:29N 30°05' W 093°20'0 0.0
2018-Jun-08 10:59N 30°05' W 093°20'0 0.0
2018-Jun-08 10:29N 30°05' W 093°20'0 0.0
2018-Jun-08 09:59N 30°05' W 093°20'0 0.0
2018-Jun-08 09:29N 30°05' W 093°20'0 0.0
2018-Jun-08 08:59N 30°05' W 093°20'0 0.0
2018-Jun-08 08:29N 30°05' W 093°20'0 0.0
2018-Jun-08 07:59N 30°05' W 093°20'0 0.0
2018-Jun-08 07:29N 30°05' W 093°20'0 0.0
2018-Jun-08 06:59N 30°05' W 093°20'0 0.0
2018-Jun-08 06:29N 30°05' W 093°20'0 0.0
2018-Jun-08 05:59N 30°05' W 093°20'0 0.0
2018-Jun-08 05:29N 30°05' W 093°20'0 0.0
2018-Jun-08 04:59N 30°05' W 093°20'0 0.0
2018-Jun-08 04:29N 30°05' W 093°20'0 0.0
2018-Jun-08 03:59N 30°05' W 093°20'0 0.0
2018-Jun-08 03:29N 30°05' W 093°20'0 0.0
2018-Jun-08 02:59N 30°05' W 093°20'0 0.0
2018-Jun-08 02:29N 30°05' W 093°20'0 0.0
2018-Jun-08 01:59N 30°05' W 093°20'0 0.0
2018-Jun-08 01:29N 30°05' W 093°20'0 0.0
2018-Jun-08 00:59N 30°05' W 093°20'0 0.0
2018-Jun-08 00:29N 30°05' W 093°20'0 0.0
2018-Jun-07 23:59N 30°05' W 093°20'0 0.0
2018-Jun-07 23:26N 30°05' W 093°20'0 0.0
2018-Jun-07 22:59N 30°05' W 093°20'0 0.0
2018-Jun-07 22:29N 30°05' W 093°20'0 0.0
2018-Jun-07 21:59N 30°05' W 093°20'0 0.0
2018-Jun-07 21:29N 30°05' W 093°20'0 0.0
2018-Jun-07 20:59N 30°05' W 093°20'0 0.0
2018-Jun-07 20:29N 30°05' W 093°20'0 0.0
2018-Jun-07 19:59N 30°05' W 093°20'0 0.0
2018-Jun-07 19:29N 30°05' W 093°20'0 0.0
2018-Jun-07 18:59N 30°05' W 093°20'0 0.0
2018-Jun-07 18:29N 30°05' W 093°20'0 0.0
2018-Jun-07 17:59N 30°05' W 093°20'0 0.0
2018-Jun-07 17:29N 30°05' W 093°20'0 0.0
2018-Jun-07 16:59N 30°05' W 093°20'0 0.0
2018-Jun-07 16:29N 30°05' W 093°20'0 0.0
2018-Jun-07 15:59N 30°05' W 093°20'0 0.0
2018-Jun-07 15:29N 30°05' W 093°20'0 0.0
2018-Jun-07 14:59N 30°05' W 093°20'0 0.0
2018-Jun-07 14:29N 30°05' W 093°20'0 0.0
2018-Jun-07 13:59N 30°05' W 093°20'0 0.0
2018-Jun-07 13:29N 30°05' W 093°20'0 0.0
2018-Jun-07 12:59N 30°05' W 093°20'0 0.0
2018-Jun-07 12:29N 30°05' W 093°20'0 0.0
2018-Jun-07 11:59N 30°05' W 093°20'0 0.0
2018-Jun-07 11:29N 30°05' W 093°20'0 0.0
2018-Jun-07 10:59N 30°05' W 093°20'0 0.0
2018-Jun-07 10:29N 30°05' W 093°20'0 0.0
2018-Jun-07 09:59N 30°05' W 093°20'0 0.0
2018-Jun-07 09:29N 30°05' W 093°20'0 0.0
2018-Jun-07 08:59N 30°05' W 093°20'0 0.0
2018-Jun-07 08:29N 30°05' W 093°20'0 0.0
2018-Jun-07 07:59N 30°05' W 093°20'0 0.0
2018-Jun-07 07:29N 30°05' W 093°20'0 0.0
2018-Jun-07 06:59N 30°05' W 093°20'0 0.0
2018-Jun-07 06:29N 30°05' W 093°20'0 0.0
2018-Jun-07 05:59N 30°05' W 093°20'0 0.0
2018-Jun-07 05:29N 30°05' W 093°20'0 0.0
2018-Jun-07 04:59N 30°05' W 093°20'0 0.0
2018-Jun-07 04:29N 30°05' W 093°20'0 0.0
2018-Jun-07 03:59N 30°05' W 093°20'0 0.0
2018-Jun-07 03:28N 30°05' W 093°20'0 0.0
2018-Jun-07 02:59N 30°05' W 093°20'0 0.0
2018-Jun-07 02:29N 30°05' W 093°20'0 0.0
2018-Jun-07 01:59N 30°05' W 093°20'0 0.0
2018-Jun-07 01:29N 30°05' W 093°20'0 0.0
2018-Jun-07 00:59N 30°05' W 093°20'0 0.0
2018-Jun-07 00:29N 30°05' W 093°20'0 0.0
2018-Jun-06 23:59N 30°05' W 093°20'0 0.0
2018-Jun-06 23:29N 30°05' W 093°20'0 0.0
2018-Jun-06 22:59N 30°05' W 093°20'0 0.0
2018-Jun-06 22:28N 30°05' W 093°20'1 1.4
2018-Jun-06 22:00N 30°05' W 093°20'1 2.5
2018-Jun-06 21:28N 30°04' W 093°21'0 0.0
2018-Jun-06 20:59N 30°04' W 093°21'2 3.9
2018-Jun-06 20:30N 30°05' W 093°20'0 0.3
2018-Jun-06 20:00N 30°05' W 093°20'0 0.0
2018-Jun-06 19:30N 30°05' W 093°20'0 0.0
2018-Jun-06 19:00N 30°05' W 093°20'0 0.0
2018-Jun-06 18:30N 30°05' W 093°20'0 0.0
2018-Jun-06 18:00N 30°05' W 093°20'0 0.0
2018-Jun-06 17:30N 30°05' W 093°20'2 3.8
2018-Jun-06 16:59N 30°04' W 093°21'0 0.0
2018-Jun-06 16:26N 30°04' W 093°21'0 0.0
2018-Jun-06 15:59N 30°04' W 093°21'0 0.0
2018-Jun-06 15:29N 30°04' W 093°21'0 0.0
2018-Jun-06 14:59N 30°04' W 093°21'1 1.5
2018-Jun-06 14:30N 30°04' W 093°21'1 2.7
2018-Jun-06 14:00N 30°05' W 093°20'0 0.0
2018-Jun-06 13:30N 30°05' W 093°20'0 0.0
2018-Jun-06 13:00N 30°05' W 093°20'0 0.0
2018-Jun-06 12:30N 30°05' W 093°20'0 0.0
2018-Jun-06 12:00N 30°05' W 093°20'0 0.0
2018-Jun-06 11:30N 30°05' W 093°20'0 0.0
2018-Jun-06 11:00N 30°05' W 093°20'0 0.0
2018-Jun-06 10:30N 30°05' W 093°20'0 0.0
2018-Jun-06 10:00N 30°05' W 093°20'0 0.0
2018-Jun-06 09:30N 30°05' W 093°20'0 0.0
2018-Jun-06 08:54N 30°05' W 093°20'0 0.0
2018-Jun-06 08:30N 30°05' W 093°20'0 0.0
2018-Jun-06 07:57N 30°05' W 093°20'0 0.0
2018-Jun-06 07:30N 30°05' W 093°20'0 0.1
2018-Jun-06 06:58N 30°05' W 093°20'0 0.1
2018-Jun-06 06:29N 30°05' W 093°20'0 0.0
2018-Jun-06 05:59N 30°05' W 093°20'0 0.0
2018-Jun-06 05:29N 30°05' W 093°20'0 0.0
2018-Jun-06 04:59N 30°05' W 093°20'0 0.0
2018-Jun-06 04:29N 30°05' W 093°20'0 0.0
2018-Jun-06 03:59N 30°05' W 093°20'0 0.0
2018-Jun-06 03:29N 30°05' W 093°20'0 0.0
2018-Jun-06 02:59N 30°05' W 093°20'0 0.0
2018-Jun-06 02:29N 30°05' W 093°20'0 0.0
2018-Jun-06 01:59N 30°05' W 093°20'0 0.0
2018-Jun-06 01:29N 30°05' W 093°20'0 0.0
2018-Jun-06 00:59N 30°05' W 093°20'0 0.0
2018-Jun-06 00:29N 30°05' W 093°20'  
Track history (hours):
 
Tides and Currents Weather Stations Pressure Air Temp Water Temp Dewpoint Dewpoint Depression Visibility Wind Speed Wind Dir Waves Ship Positions

Jackie

Owner: Enterprise Marine Services, LLC, San Antonio, TX. More information available from US FCC via Universal Licensing System and Coast Guard Vessel Documentation Center.

Last reported at 2018-Jun-16 00:17 UTC. Time now 2018-Jun-24 14:19 UTC.
Position N 29°34' W 090°31'.
Warning: this ship's position is 8 days out of date.

Length 22 m; draft 3.3 m.

Type: . MMSI: 367050250.

Date/timePositionNaut miles runAvg speedWind from/ knotsBaromVisibWave heightAir tempDewpointWater temp
2018-Jun-16 00:17N 29°34' W 090°31'1 5.0
2018-Jun-16 00:00N 29°34' W 090°32'3 5.1
2018-Jun-15 23:26N 29°35' W 090°35'2 4.1
2018-Jun-15 22:59N 29°35' W 090°37'1 2.1
2018-Jun-15 22:29N 29°35' W 090°39'2 4.0
2018-Jun-15 22:00N 29°36' W 090°40'2 3.6
2018-Jun-15 21:30N 29°37' W 090°42'2 3.9
2018-Jun-15 21:00N 29°35' W 090°43'2 3.5
2018-Jun-15 20:30N 29°34' W 090°45'1 1.4
2018-Jun-15 19:56N 29°33' W 090°45'0 1.0
2018-Jun-15 19:30N 29°33' W 090°45'3 5.3
2018-Jun-15 19:00N 29°32' W 090°49'3 6.1
2018-Jun-15 18:29N 29°32' W 090°52'6 6.1
2018-Jun-15 17:28N 29°36' W 090°58'52 3.5
2018-Jun-15 02:32N 29°51' W 091°55'0 5.6
2018-Jun-15 02:30N 29°51' W 091°56'2 5.0
2018-Jun-15 02:00N 29°50' W 091°58'2 4.9
2018-Jun-15 01:30N 29°49' W 092°01'2 5.0
2018-Jun-15 01:00N 29°48' W 092°04'2 4.8
2018-Jun-15 00:30N 29°48' W 092°06'2 4.8
2018-Jun-15 00:00N 29°47' W 092°09'2 3.5
2018-Jun-14 23:30N 29°47' W 092°11'1 2.6
2018-Jun-14 23:00N 29°47' W 092°12'1 2.2
2018-Jun-14 22:30N 29°48' W 092°14'0 0.9
2018-Jun-14 22:00N 29°48' W 092°14'0 0.9
2018-Jun-14 21:30N 29°48' W 092°15'2 4.9
2018-Jun-14 21:00N 29°49' W 092°17'2 4.4
2018-Jun-14 20:30N 29°50' W 092°19'2 4.6
2018-Jun-14 20:00N 29°51' W 092°22'36 3.5
2018-Jun-14 09:33N 29°56' W 093°03'1 3.7
2018-Jun-14 09:22N 29°56' W 093°04'2 4.1
2018-Jun-14 08:49N 29°56' W 093°06'1 3.4
2018-Jun-14 08:30N 29°56' W 093°08'2 3.9
2018-Jun-14 08:00N 29°56' W 093°10'2 3.1
2018-Jun-14 07:30N 29°58' W 093°11'2 3.2
2018-Jun-14 07:00N 29°59' W 093°12'2 3.3
2018-Jun-14 06:30N 30°00' W 093°14'2 3.3
2018-Jun-14 06:00N 30°02' W 093°14'2 3.2
2018-Jun-14 05:30N 30°03' W 093°16'2 3.0
2018-Jun-14 05:00N 30°04' W 093°16'2 3.1
2018-Jun-14 04:30N 30°05' W 093°17'0 0.9
2018-Jun-14 04:00N 30°05' W 093°18'1 1.4
2018-Jun-14 03:30N 30°06' W 093°18'0 0.7
2018-Jun-14 03:00N 30°06' W 093°19'0 0.3
2018-Jun-14 02:30N 30°06' W 093°19'0 0.0
2018-Jun-14 02:00N 30°06' W 093°19'0 0.0
2018-Jun-14 01:30N 30°06' W 093°19'0 0.0
2018-Jun-14 01:00N 30°06' W 093°19'0 0.0
2018-Jun-14 00:29N 30°06' W 093°19'0 0.0
2018-Jun-13 23:59N 30°06' W 093°19'0 0.0
2018-Jun-13 23:29N 30°06' W 093°19'0 0.0
2018-Jun-13 22:59N 30°06' W 093°19'0 0.0
2018-Jun-13 22:29N 30°06' W 093°19'0 0.0
2018-Jun-13 22:00N 30°06' W 093°19'0 0.0
2018-Jun-13 21:29N 30°06' W 093°19'0 0.1
2018-Jun-13 20:59N 30°06' W 093°19'0 0.1
2018-Jun-13 20:29N 30°06' W 093°19'0 0.1
2018-Jun-13 19:59N 30°06' W 093°19'0 0.0
2018-Jun-13 19:29N 30°06' W 093°19'0 0.0
2018-Jun-13 18:59N 30°06' W 093°19'0 0.0
2018-Jun-13 18:29N 30°06' W 093°19'0 0.0
2018-Jun-13 17:59N 30°06' W 093°19'0 0.0
2018-Jun-13 17:29N 30°06' W 093°19'0 0.0
2018-Jun-13 16:59N 30°06' W 093°19'0 0.1
2018-Jun-13 16:29N 30°06' W 093°19'0 0.2
2018-Jun-13 15:59N 30°06' W 093°19'0 0.0
2018-Jun-13 15:29N 30°06' W 093°19'0 0.0
2018-Jun-13 14:59N 30°06' W 093°19'0 0.0
2018-Jun-13 14:29N 30°06' W 093°19'0 0.0
2018-Jun-13 13:59N 30°06' W 093°19'0 0.0
2018-Jun-13 13:29N 30°06' W 093°19'0 0.0
2018-Jun-13 12:59N 30°06' W 093°19'0 0.0
2018-Jun-13 12:29N 30°06' W 093°19'0 0.0
2018-Jun-13 11:59N 30°06' W 093°19'0 0.0
2018-Jun-13 11:29N 30°06' W 093°19'0 0.0
2018-Jun-13 10:59N 30°06' W 093°19'0 0.1
2018-Jun-13 10:29N 30°06' W 093°19'0 0.0
2018-Jun-13 09:59N 30°06' W 093°19'0 0.1
2018-Jun-13 09:29N 30°06' W 093°19'0 0.1
2018-Jun-13 08:59N 30°06' W 093°19'0 0.0
2018-Jun-13 08:29N 30°06' W 093°19'0 0.0
2018-Jun-13 07:59N 30°06' W 093°19'0 0.0
2018-Jun-13 07:29N 30°06' W 093°19'0 0.0
2018-Jun-13 06:59N 30°06' W 093°19'0 0.0
2018-Jun-13 06:29N 30°06' W 093°19'0 0.0
2018-Jun-13 05:59N 30°06' W 093°19'0 0.0
2018-Jun-13 05:29N 30°06' W 093°19'0 0.0
2018-Jun-13 04:59N 30°06' W 093°19'0 0.0
2018-Jun-13 04:29N 30°06' W 093°19'0 0.0
2018-Jun-13 03:59N 30°06' W 093°19'1 1.5
2018-Jun-13 03:30N 30°06' W 093°20'2 4.2
2018-Jun-13 03:01N 30°08' W 093°20'0 0.7
2018-Jun-13 02:28N 30°08' W 093°20'0 0.9
2018-Jun-13 01:58N 30°08' W 093°19'0 0.0
2018-Jun-13 01:28N 30°08' W 093°19'0 0.0
2018-Jun-13 00:58N 30°08' W 093°19'0 0.0
2018-Jun-13 00:28N 30°08' W 093°19'0 0.0
2018-Jun-12 23:58N 30°08' W 093°19'0 0.0
2018-Jun-12 23:28N 30°08' W 093°19'0 0.0
2018-Jun-12 22:58N 30°08' W 093°19'0 0.0
2018-Jun-12 22:28N 30°08' W 093°19'0 0.0
2018-Jun-12 21:58N 30°08' W 093°19'0 0.0
2018-Jun-12 21:28N 30°08' W 093°19'0 0.0
2018-Jun-12 20:58N 30°08' W 093°19'0 0.0
2018-Jun-12 20:28N 30°08' W 093°19'0 0.0
2018-Jun-12 19:58N 30°08' W 093°19'0 0.0
2018-Jun-12 19:28N 30°08' W 093°19'0 0.0
2018-Jun-12 18:58N 30°08' W 093°19'0 0.0
2018-Jun-12 18:28N 30°08' W 093°19'0 0.0
2018-Jun-12 17:58N 30°08' W 093°19'0 0.0
2018-Jun-12 17:28N 30°08' W 093°19'0 0.0
2018-Jun-12 16:58N 30°08' W 093°19'0 0.0
2018-Jun-12 16:28N 30°08' W 093°19'0 0.0
2018-Jun-12 15:58N 30°08' W 093°19'0 0.0
2018-Jun-12 15:28N 30°08' W 093°19'0 0.0
2018-Jun-12 14:58N 30°08' W 093°19'0 0.0
2018-Jun-12 14:28N 30°08' W 093°19'0 0.0
2018-Jun-12 13:58N 30°08' W 093°19'0 0.0
2018-Jun-12 13:28N 30°08' W 093°19'0 0.0
2018-Jun-12 12:58N 30°08' W 093°19'0 0.0
2018-Jun-12 12:28N 30°08' W 093°19'0 0.4
2018-Jun-12 11:58N 30°08' W 093°19'0 0.4
2018-Jun-12 11:28N 30°08' W 093°20'0 0.1
2018-Jun-12 10:58N 30°08' W 093°20'2 3.6
2018-Jun-12 10:30N 30°06' W 093°20'1 2.4
2018-Jun-12 10:00N 30°05' W 093°20'0 0.0
2018-Jun-12 09:30N 30°05' W 093°20'0 0.0
2018-Jun-12 09:00N 30°05' W 093°20'0 0.0
2018-Jun-12 08:30N 30°05' W 093°20'0 0.0
2018-Jun-12 08:00N 30°05' W 093°20'0 0.0
2018-Jun-12 07:30N 30°05' W 093°20'0 0.0
2018-Jun-12 06:57N 30°05' W 093°20'0 0.0
2018-Jun-12 06:30N 30°05' W 093°20'0 0.0
2018-Jun-12 06:00N 30°05' W 093°20'0 0.0
2018-Jun-12 05:30N 30°05' W 093°20'0 0.0
2018-Jun-12 05:00N 30°05' W 093°20'0 0.0
2018-Jun-12 04:30N 30°05' W 093°20'0 0.0
2018-Jun-12 03:57N 30°05' W 093°20'0 0.0
2018-Jun-12 03:30N 30°05' W 093°20'0 0.0
2018-Jun-12 03:00N 30°05' W 093°20'0 0.0
2018-Jun-12 02:30N 30°05' W 093°20'0 0.0
2018-Jun-12 02:00N 30°05' W 093°20'0 0.0
2018-Jun-12 01:30N 30°05' W 093°20'0 0.0
2018-Jun-12 01:00N 30°05' W 093°20'0 0.0
2018-Jun-12 00:30N 30°05' W 093°20'0 0.0
2018-Jun-12 00:00N 30°05' W 093°20'0 0.0
2018-Jun-11 23:30N 30°05' W 093°20'0 0.7
2018-Jun-11 22:59N 30°05' W 093°20'0 0.0
2018-Jun-11 22:29N 30°05' W 093°20'0 0.0
2018-Jun-11 21:59N 30°05' W 093°20'0 0.0
2018-Jun-11 21:29N 30°05' W 093°20'0 0.0
2018-Jun-11 20:59N 30°05' W 093°20'0 0.0
2018-Jun-11 20:26N 30°05' W 093°20'0 0.0
2018-Jun-11 19:59N 30°05' W 093°20'0 0.0
2018-Jun-11 19:29N 30°05' W 093°20'0 0.0
2018-Jun-11 18:59N 30°05' W 093°20'0 0.0
2018-Jun-11 18:29N 30°05' W 093°20'0 0.7
2018-Jun-11 17:58N 30°05' W 093°20'0 0.0
2018-Jun-11 17:28N 30°05' W 093°20'0 0.0
2018-Jun-11 16:58N 30°05' W 093°20'0 0.0
2018-Jun-11 16:28N 30°05' W 093°20'0 0.0
2018-Jun-11 15:58N 30°05' W 093°20'0 0.0
2018-Jun-11 15:28N 30°05' W 093°20'0 0.0
2018-Jun-11 14:58N 30°05' W 093°20'0 0.0
2018-Jun-11 14:28N 30°05' W 093°20'0 0.0
2018-Jun-11 13:58N 30°05' W 093°20'0 0.7
2018-Jun-11 13:26N 30°05' W 093°20'0 0.0
2018-Jun-11 12:59N 30°05' W 093°20'0 0.8
2018-Jun-11 12:30N 30°05' W 093°20'0 0.0
2018-Jun-11 11:57N 30°05' W 093°20'0 0.0
2018-Jun-11 11:30N 30°05' W 093°20'0 0.0
2018-Jun-11 11:00N 30°05' W 093°20'0 0.0
2018-Jun-11 10:30N 30°05' W 093°20'0 0.0
2018-Jun-11 10:00N 30°05' W 093°20'0 0.0
2018-Jun-11 09:30N 30°05' W 093°20'0 0.0
2018-Jun-11 09:00N 30°05' W 093°20'0 0.0
2018-Jun-11 08:30N 30°05' W 093°20'0 0.0
2018-Jun-11 08:00N 30°05' W 093°20'0 0.0
2018-Jun-11 07:30N 30°05' W 093°20'0 0.0
2018-Jun-11 07:00N 30°05' W 093°20'0 0.0
2018-Jun-11 06:30N 30°05' W 093°20'0 0.0
2018-Jun-11 06:00N 30°05' W 093°20'0 0.0
2018-Jun-11 05:30N 30°05' W 093°20'0 0.0
2018-Jun-11 04:57N 30°05' W 093°20'0 0.0
2018-Jun-11 04:30N 30°05' W 093°20'0 0.0
2018-Jun-11 04:00N 30°05' W 093°20'0 0.0
2018-Jun-11 03:30N 30°05' W 093°20'0 0.0
2018-Jun-11 03:00N 30°05' W 093°20'0 0.0
2018-Jun-11 02:30N 30°05' W 093°20'0 0.0
2018-Jun-11 02:00N 30°05' W 093°20'0 0.0
2018-Jun-11 01:30N 30°05' W 093°20'0 0.0
2018-Jun-11 01:00N 30°05' W 093°20'0 0.0
2018-Jun-11 00:30N 30°05' W 093°20'0 0.0
2018-Jun-11 00:00N 30°05' W 093°20'0 0.0
2018-Jun-10 23:30N 30°05' W 093°20'0 0.0
2018-Jun-10 23:00N 30°05' W 093°20'0 0.0
2018-Jun-10 22:30N 30°05' W 093°20'0 0.0
2018-Jun-10 22:00N 30°05' W 093°20'0 0.0
2018-Jun-10 21:27N 30°05' W 093°20'0 0.0
2018-Jun-10 21:00N 30°05' W 093°20'0 0.0
2018-Jun-10 20:30N 30°05' W 093°20'0 0.0
2018-Jun-10 20:00N 30°05' W 093°20'0 0.0
2018-Jun-10 19:30N 30°05' W 093°20'0 0.0
2018-Jun-10 18:57N 30°05' W 093°20'0 0.0
2018-Jun-10 18:30N 30°05' W 093°20'0 0.0
2018-Jun-10 18:00N 30°05' W 093°20'0 0.0
2018-Jun-10 17:30N 30°05' W 093°20'0 0.0
2018-Jun-10 17:00N 30°05' W 093°20'0 0.0
2018-Jun-10 16:30N 30°05' W 093°20'0 0.0
2018-Jun-10 16:00N 30°05' W 093°20'0 0.0
2018-Jun-10 15:30N 30°05' W 093°20'0 0.0
2018-Jun-10 15:00N 30°05' W 093°20'0 0.0
2018-Jun-10 14:30N 30°05' W 093°20'0 0.0
2018-Jun-10 13:30N 30°05' W 093°20'0 0.0
2018-Jun-10 13:00N 30°05' W 093°20'0 0.0
2018-Jun-10 12:30N 30°05' W 093°20'0 0.0
2018-Jun-10 12:00N 30°05' W 093°20'0 0.0
2018-Jun-10 11:30N 30°05' W 093°20'0 0.0
2018-Jun-10 11:00N 30°05' W 093°20'0 0.0
2018-Jun-10 10:27N 30°05' W 093°20'0 0.0
2018-Jun-10 10:00N 30°05' W 093°20'0 0.0
2018-Jun-10 09:30N 30°05' W 093°20'0 0.0
2018-Jun-10 08:57N 30°05' W 093°20'0 0.0
2018-Jun-10 08:30N 30°05' W 093°20'0 0.0
2018-Jun-10 08:00N 30°05' W 093°20'0 0.0
2018-Jun-10 07:30N 30°05' W 093°20'0 0.0
2018-Jun-10 07:00N 30°05' W 093°20'0 0.0
2018-Jun-10 06:30N 30°05' W 093°20'0 0.0
2018-Jun-10 06:00N 30°05' W 093°20'0 0.0
2018-Jun-10 05:30N 30°05' W 093°20'0 0.0
2018-Jun-10 05:00N 30°05' W 093°20'0 0.0
2018-Jun-10 04:30N 30°05' W 093°20'0 0.0
2018-Jun-10 04:00N 30°05' W 093°20'0 0.0
2018-Jun-10 03:30N 30°05' W 093°20'0 0.0
2018-Jun-10 03:00N 30°05' W 093°20'0 0.0
2018-Jun-10 02:30N 30°05' W 093°20'0 0.0
2018-Jun-10 02:00N 30°05' W 093°20'0 0.0
2018-Jun-10 01:30N 30°05' W 093°20'0 0.0
2018-Jun-10 01:00N 30°05' W 093°20'0 0.0
2018-Jun-10 00:30N 30°05' W 093°20'0 0.0
2018-Jun-10 00:00N 30°05' W 093°20'0 0.0
2018-Jun-09 23:30N 30°05' W 093°20'0 0.0
2018-Jun-09 23:00N 30°05' W 093°20'0 0.0
2018-Jun-09 22:30N 30°05' W 093°20'0 0.0
2018-Jun-09 22:00N 30°05' W 093°20'0 0.0
2018-Jun-09 21:30N 30°05' W 093°20'0 0.7
2018-Jun-09 20:59N 30°05' W 093°20'0 0.0
2018-Jun-09 20:29N 30°05' W 093°20'0 0.0
2018-Jun-09 19:59N 30°05' W 093°20'0 0.0
2018-Jun-09 19:29N 30°05' W 093°20'0 0.0
2018-Jun-09 18:59N 30°05' W 093°20'0 0.0
2018-Jun-09 18:29N 30°05' W 093°20'0 0.0
2018-Jun-09 17:59N 30°05' W 093°20'0 0.0
2018-Jun-09 17:29N 30°05' W 093°20'0 0.0
2018-Jun-09 16:59N 30°05' W 093°20'0 0.0
2018-Jun-09 16:29N 30°05' W 093°20'0 0.0
2018-Jun-09 15:59N 30°05' W 093°20'0 0.0
2018-Jun-09 14:59N 30°05' W 093°20'0 0.0
2018-Jun-09 14:29N 30°05' W 093°20'0 0.0
2018-Jun-09 13:59N 30°05' W 093°20'0 0.0
2018-Jun-09 13:26N 30°05' W 093°20'0 0.8
2018-Jun-09 12:59N 30°05' W 093°20'0 0.0
2018-Jun-09 12:29N 30°05' W 093°20'0 0.0
2018-Jun-09 11:59N 30°05' W 093°20'0 0.0
2018-Jun-09 11:29N 30°05' W 093°20'0 0.0
2018-Jun-09 10:59N 30°05' W 093°20'0 0.0
2018-Jun-09 10:29N 30°05' W 093°20'0 0.0
2018-Jun-09 09:59N 30°05' W 093°20'0 0.0
2018-Jun-09 09:29N 30°05' W 093°20'0 0.0
2018-Jun-09 08:59N 30°05' W 093°20'0 0.0
2018-Jun-09 08:26N 30°05' W 093°20'0 0.0
2018-Jun-09 07:59N 30°05' W 093°20'0 0.0
2018-Jun-09 07:29N 30°05' W 093°20'0 0.0
2018-Jun-09 06:59N 30°05' W 093°20'0 0.0
2018-Jun-09 06:29N 30°05' W 093°20'0 0.0
2018-Jun-09 05:59N 30°05' W 093°20'0 0.0
2018-Jun-09 05:29N 30°05' W 093°20'0 0.0
2018-Jun-09 04:59N 30°05' W 093°20'0 0.0
2018-Jun-09 04:29N 30°05' W 093°20'0 0.0
2018-Jun-09 03:59N 30°05' W 093°20'0 0.0
2018-Jun-09 03:26N 30°05' W 093°20'0 0.0
2018-Jun-09 02:59N 30°05' W 093°20'0 0.0
2018-Jun-09 02:29N 30°05' W 093°20'0 0.0
2018-Jun-09 01:59N 30°05' W 093°20'0 0.0
2018-Jun-09 01:29N 30°05' W 093°20'0 0.0
2018-Jun-09 00:59N 30°05' W 093°20'0 0.0
2018-Jun-09 00:29N 30°05' W 093°20'0 0.0
2018-Jun-08 23:59N 30°05' W 093°20'0 0.0
2018-Jun-08 23:29N 30°05' W 093°20'0 0.0
2018-Jun-08 22:59N 30°05' W 093°20'0 0.0
2018-Jun-08 22:29N 30°05' W 093°20'0 0.0
2018-Jun-08 21:59N 30°05' W 093°20'0 0.0
2018-Jun-08 21:29N 30°05' W 093°20'0 0.0
2018-Jun-08 20:53N 30°05' W 093°20'0 0.0
2018-Jun-08 20:29N 30°05' W 093°20'0 0.0
2018-Jun-08 19:59N 30°05' W 093°20'0 0.0
2018-Jun-08 19:29N 30°05' W 093°20'0 0.0
2018-Jun-08 18:59N 30°05' W 093°20'0 0.0
2018-Jun-08 18:29N 30°05' W 093°20'0 0.0
2018-Jun-08 17:59N 30°05' W 093°20'0 0.0
2018-Jun-08 17:29N 30°05' W 093°20'0 0.0
2018-Jun-08 16:59N 30°05' W 093°20'0 0.0
2018-Jun-08 16:29N 30°05' W 093°20'0 0.0
2018-Jun-08 15:59N 30°05' W 093°20'0 0.0
2018-Jun-08 15:29N 30°05' W 093°20'0 0.0
2018-Jun-08 14:59N 30°05' W 093°20'0 0.0
2018-Jun-08 14:29N 30°05' W 093°20'0 0.0
2018-Jun-08 13:59N 30°05' W 093°20'0 0.0
2018-Jun-08 13:29N 30°05' W 093°20'0 0.0
2018-Jun-08 12:59N 30°05' W 093°20'0 0.0
2018-Jun-08 12:29N 30°05' W 093°20'0 0.0
2018-Jun-08 11:59N 30°05' W 093°20'0 0.0
2018-Jun-08 11:29N 30°05' W 093°20'0 0.0
2018-Jun-08 10:59N 30°05' W 093°20'0 0.0
2018-Jun-08 10:29N 30°05' W 093°20'0 0.0
2018-Jun-08 09:59N 30°05' W 093°20'0 0.0
2018-Jun-08 09:29N 30°05' W 093°20'0 0.0
2018-Jun-08 08:59N 30°05' W 093°20'0 0.0
2018-Jun-08 08:29N 30°05' W 093°20'0 0.0
2018-Jun-08 07:59N 30°05' W 093°20'0 0.0
2018-Jun-08 07:29N 30°05' W 093°20'0 0.0
2018-Jun-08 06:59N 30°05' W 093°20'0 0.0
2018-Jun-08 06:29N 30°05' W 093°20'0 0.0
2018-Jun-08 05:59N 30°05' W 093°20'0 0.0
2018-Jun-08 05:29N 30°05' W 093°20'0 0.0
2018-Jun-08 04:59N 30°05' W 093°20'0 0.0
2018-Jun-08 04:29N 30°05' W 093°20'0 0.0
2018-Jun-08 03:59N 30°05' W 093°20'0 0.0
2018-Jun-08 03:29N 30°05' W 093°20'0 0.0
2018-Jun-08 02:59N 30°05' W 093°20'0 0.0
2018-Jun-08 02:29N 30°05' W 093°20'0 0.0
2018-Jun-08 01:59N 30°05' W 093°20'0 0.0
2018-Jun-08 01:29N 30°05' W 093°20'0 0.0
2018-Jun-08 00:59N 30°05' W 093°20'0 0.0
2018-Jun-08 00:29N 30°05' W 093°20'0 0.0
2018-Jun-07 23:59N 30°05' W 093°20'0 0.0
2018-Jun-07 23:26N 30°05' W 093°20'0 0.0
2018-Jun-07 22:59N 30°05' W 093°20'0 0.0
2018-Jun-07 22:29N 30°05' W 093°20'0 0.0
2018-Jun-07 21:59N 30°05' W 093°20'0 0.0
2018-Jun-07 21:29N 30°05' W 093°20'0 0.0
2018-Jun-07 20:59N 30°05' W 093°20'0 0.0
2018-Jun-07 20:29N 30°05' W 093°20'0 0.0
2018-Jun-07 19:59N 30°05' W 093°20'0 0.0
2018-Jun-07 19:29N 30°05' W 093°20'0 0.0
2018-Jun-07 18:59N 30°05' W 093°20'0 0.0
2018-Jun-07 18:29N 30°05' W 093°20'0 0.0
2018-Jun-07 17:59N 30°05' W 093°20'0 0.0
2018-Jun-07 17:29N 30°05' W 093°20'0 0.0
2018-Jun-07 16:59N 30°05' W 093°20'0 0.0
2018-Jun-07 16:29N 30°05' W 093°20'0 0.0
2018-Jun-07 15:59N 30°05' W 093°20'0 0.0
2018-Jun-07 15:29N 30°05' W 093°20'0 0.0
2018-Jun-07 14:59N 30°05' W 093°20'0 0.0
2018-Jun-07 14:29N 30°05' W 093°20'0 0.0
2018-Jun-07 13:59N 30°05' W 093°20'0 0.0
2018-Jun-07 13:29N 30°05' W 093°20'0 0.0
2018-Jun-07 12:59N 30°05' W 093°20'0 0.0
2018-Jun-07 12:29N 30°05' W 093°20'0 0.0
2018-Jun-07 11:59N 30°05' W 093°20'0 0.0
2018-Jun-07 11:29N 30°05' W 093°20'0 0.0
2018-Jun-07 10:59N 30°05' W 093°20'0 0.0
2018-Jun-07 10:29N 30°05' W 093°20'0 0.0
2018-Jun-07 09:59N 30°05' W 093°20'0 0.0
2018-Jun-07 09:29N 30°05' W 093°20'0 0.0
2018-Jun-07 08:59N 30°05' W 093°20'0 0.0
2018-Jun-07 08:29N 30°05' W 093°20'0 0.0
2018-Jun-07 07:59N 30°05' W 093°20'0 0.0
2018-Jun-07 07:29N 30°05' W 093°20'0 0.0
2018-Jun-07 06:59N 30°05' W 093°20'0 0.0
2018-Jun-07 06:29N 30°05' W 093°20'0 0.0
2018-Jun-07 05:59N 30°05' W 093°20'0 0.0
2018-Jun-07 05:29N 30°05' W 093°20'0 0.0
2018-Jun-07 04:59N 30°05' W 093°20'0 0.0
2018-Jun-07 04:29N 30°05' W 093°20'0 0.0
2018-Jun-07 03:59N 30°05' W 093°20'0 0.0
2018-Jun-07 03:28N 30°05' W 093°20'0 0.0
2018-Jun-07 02:59N 30°05' W 093°20'0 0.0
2018-Jun-07 02:29N 30°05' W 093°20'0 0.0
2018-Jun-07 01:59N 30°05' W 093°20'0 0.0
2018-Jun-07 01:29N 30°05' W 093°20'0 0.0
2018-Jun-07 00:59N 30°05' W 093°20'0 0.0
2018-Jun-07 00:29N 30°05' W 093°20'0 0.0
2018-Jun-06 23:59N 30°05' W 093°20'0 0.0
2018-Jun-06 23:29N 30°05' W 093°20'0 0.0
2018-Jun-06 22:59N 30°05' W 093°20'0 0.0
2018-Jun-06 22:28N 30°05' W 093°20'1 1.4
2018-Jun-06 22:00N 30°05' W 093°20'1 2.5
2018-Jun-06 21:28N 30°04' W 093°21'0 0.0
2018-Jun-06 20:59N 30°04' W 093°21'2 3.9
2018-Jun-06 20:30N 30°05' W 093°20'0 0.3
2018-Jun-06 20:00N 30°05' W 093°20'0 0.0
2018-Jun-06 19:30N 30°05' W 093°20'0 0.0
2018-Jun-06 19:00N 30°05' W 093°20'0 0.0
2018-Jun-06 18:30N 30°05' W 093°20'0 0.0
2018-Jun-06 18:00N 30°05' W 093°20'0 0.0
2018-Jun-06 17:30N 30°05' W 093°20'2 3.8
2018-Jun-06 16:59N 30°04' W 093°21'0 0.0
2018-Jun-06 16:26N 30°04' W 093°21'0 0.0
2018-Jun-06 15:59N 30°04' W 093°21'0 0.0
2018-Jun-06 15:29N 30°04' W 093°21'0 0.0
2018-Jun-06 14:59N 30°04' W 093°21'1 1.5
2018-Jun-06 14:30N 30°04' W 093°21'1 2.7
2018-Jun-06 14:00N 30°05' W 093°20'0 0.0
2018-Jun-06 13:30N 30°05' W 093°20'0 0.0
2018-Jun-06 13:00N 30°05' W 093°20'0 0.0
2018-Jun-06 12:30N 30°05' W 093°20'0 0.0
2018-Jun-06 12:00N 30°05' W 093°20'0 0.0
2018-Jun-06 11:30N 30°05' W 093°20'0 0.0
2018-Jun-06 11:00N 30°05' W 093°20'0 0.0
2018-Jun-06 10:30N 30°05' W 093°20'0 0.0
2018-Jun-06 10:00N 30°05' W 093°20'0 0.0
2018-Jun-06 09:30N 30°05' W 093°20'0 0.0
2018-Jun-06 08:54N 30°05' W 093°20'0 0.0
2018-Jun-06 08:30N 30°05' W 093°20'0 0.0
2018-Jun-06 07:57N 30°05' W 093°20'0 0.0
2018-Jun-06 07:30N 30°05' W 093°20'0 0.1
2018-Jun-06 06:58N 30°05' W 093°20'0 0.1
2018-Jun-06 06:29N 30°05' W 093°20'0 0.0
2018-Jun-06 05:59N 30°05' W 093°20'0 0.0
2018-Jun-06 05:29N 30°05' W 093°20'0 0.0
2018-Jun-06 04:59N 30°05' W 093°20'0 0.0
2018-Jun-06 04:29N 30°05' W 093°20'0 0.0
2018-Jun-06 03:59N 30°05' W 093°20'0 0.0
2018-Jun-06 03:29N 30°05' W 093°20'0 0.0
2018-Jun-06 02:59N 30°05' W 093°20'0 0.0
2018-Jun-06 02:29N 30°05' W 093°20'0 0.0
2018-Jun-06 01:59N 30°05' W 093°20'0 0.0
2018-Jun-06 01:29N 30°05' W 093°20'0 0.0
2018-Jun-06 00:59N 30°05' W 093°20'0 0.0
2018-Jun-06 00:29N 30°05' W 093°20'  

Dump ship's entire track history